sensor_id;sensor_type;location;lat;lon;timestamp;P1;durP1;ratioP1;P2;durP2;ratioP2
32250;SDS011;41295;48.518;9.206;2022-09-30T00:00:37;16.63;;;8.88;;
32250;SDS011;41295;48.518;9.206;2022-09-30T00:02:39;17.48;;;9.85;;
32250;SDS011;41295;48.518;9.206;2022-09-30T00:04:42;14.13;;;8.27;;
32250;SDS011;41295;48.518;9.206;2022-09-30T00:06:46;14.30;;;7.85;;
32250;SDS011;41295;48.518;9.206;2022-09-30T00:08:49;11.95;;;7.80;;
32250;SDS011;41295;48.518;9.206;2022-09-30T00:11:00;11.25;;;6.57;;
32250;SDS011;41295;48.518;9.206;2022-09-30T00:13:04;12.10;;;6.43;;
32250;SDS011;41295;48.518;9.206;2022-09-30T00:15:07;10.90;;;6.43;;
32250;SDS011;41295;48.518;9.206;2022-09-30T00:17:10;12.02;;;6.68;;
32250;SDS011;41295;48.518;9.206;2022-09-30T00:19:13;11.95;;;6.28;;
32250;SDS011;41295;48.518;9.206;2022-09-30T00:21:16;12.48;;;7.38;;
32250;SDS011;41295;48.518;9.206;2022-09-30T00:23:20;7.72;;;6.00;;
32250;SDS011;41295;48.518;9.206;2022-09-30T00:25:24;10.82;;;6.50;;
32250;SDS011;41295;48.518;9.206;2022-09-30T00:27:26;9.55;;;6.30;;
32250;SDS011;41295;48.518;9.206;2022-09-30T00:29:29;7.50;;;5.72;;
32250;SDS011;41295;48.518;9.206;2022-09-30T00:31:32;9.45;;;6.35;;
32250;SDS011;41295;48.518;9.206;2022-09-30T00:33:36;10.82;;;7.25;;
32250;SDS011;41295;48.518;9.206;2022-09-30T00:35:39;15.88;;;9.93;;
32250;SDS011;41295;48.518;9.206;2022-09-30T00:37:41;13.35;;;7.72;;
32250;SDS011;41295;48.518;9.206;2022-09-30T00:39:45;10.02;;;6.53;;
32250;SDS011;41295;48.518;9.206;2022-09-30T00:41:49;8.80;;;5.43;;
32250;SDS011;41295;48.518;9.206;2022-09-30T00:43:53;12.32;;;7.63;;
32250;SDS011;41295;48.518;9.206;2022-09-30T00:45:56;20.05;;;8.50;;
32250;SDS011;41295;48.518;9.206;2022-09-30T00:48:02;14.48;;;7.90;;
32250;SDS011;41295;48.518;9.206;2022-09-30T00:50:11;11.80;;;6.72;;
32250;SDS011;41295;48.518;9.206;2022-09-30T00:52:18;13.40;;;8.38;;
32250;SDS011;41295;48.518;9.206;2022-09-30T00:54:21;30.52;;;12.77;;
32250;SDS011;41295;48.518;9.206;2022-09-30T00:56:29;22.40;;;10.60;;
32250;SDS011;41295;48.518;9.206;2022-09-30T00:58:39;13.10;;;7.40;;
32250;SDS011;41295;48.518;9.206;2022-09-30T01:02:50;8.23;;;5.45;;
32250;SDS011;41295;48.518;9.206;2022-09-30T01:04:54;9.02;;;6.03;;
32250;SDS011;41295;48.518;9.206;2022-09-30T01:06:58;9.55;;;6.07;;
32250;SDS011;41295;48.518;9.206;2022-09-30T01:09:03;8.30;;;5.80;;
32250;SDS011;41295;48.518;9.206;2022-09-30T01:11:06;10.82;;;6.25;;
32250;SDS011;41295;48.518;9.206;2022-09-30T01:13:10;10.50;;;5.78;;
32250;SDS011;41295;48.518;9.206;2022-09-30T01:15:13;8.85;;;6.05;;
32250;SDS011;41295;48.518;9.206;2022-09-30T01:17:17;7.30;;;5.35;;
32250;SDS011;41295;48.518;9.206;2022-09-30T01:19:45;7.82;;;5.43;;
32250;SDS011;41295;48.518;9.206;2022-09-30T01:22:20;8.68;;;5.95;;
32250;SDS011;41295;48.518;9.206;2022-09-30T01:24:37;10.82;;;5.82;;
32250;SDS011;41295;48.518;9.206;2022-09-30T01:26:58;12.32;;;6.10;;
32250;SDS011;41295;48.518;9.206;2022-09-30T01:29:22;8.95;;;5.40;;
32250;SDS011;41295;48.518;9.206;2022-09-30T01:31:45;10.35;;;5.97;;
32250;SDS011;41295;48.518;9.206;2022-09-30T01:33:58;9.80;;;5.63;;
32250;SDS011;41295;48.518;9.206;2022-09-30T01:36:12;11.35;;;6.28;;
32250;SDS011;41295;48.518;9.206;2022-09-30T01:38:27;9.25;;;6.00;;
32250;SDS011;41295;48.518;9.206;2022-09-30T01:40:38;9.63;;;5.43;;
32250;SDS011;41295;48.518;9.206;2022-09-30T01:42:45;7.30;;;5.40;;
32250;SDS011;41295;48.518;9.206;2022-09-30T01:44:53;7.60;;;5.07;;
32250;SDS011;41295;48.518;9.206;2022-09-30T01:47:07;8.70;;;5.40;;
32250;SDS011;41295;48.518;9.206;2022-09-30T01:49:15;7.18;;;5.10;;
32250;SDS011;41295;48.518;9.206;2022-09-30T01:51:27;9.10;;;5.82;;
32250;SDS011;41295;48.518;9.206;2022-09-30T01:53:35;7.07;;;5.38;;
32250;SDS011;41295;48.518;9.206;2022-09-30T01:55:42;10.38;;;5.18;;
32250;SDS011;41295;48.518;9.206;2022-09-30T01:57:52;7.80;;;5.10;;
32250;SDS011;41295;48.518;9.206;2022-09-30T02:00:00;7.20;;;5.18;;
32250;SDS011;41295;48.518;9.206;2022-09-30T02:02:09;7.03;;;5.00;;
32250;SDS011;41295;48.518;9.206;2022-09-30T02:04:19;6.43;;;4.95;;
32250;SDS011;41295;48.518;9.206;2022-09-30T02:06:27;10.27;;;5.15;;
32250;SDS011;41295;48.518;9.206;2022-09-30T02:08:34;9.90;;;5.35;;
32250;SDS011;41295;48.518;9.206;2022-09-30T02:10:43;7.10;;;5.30;;
32250;SDS011;41295;48.518;9.206;2022-09-30T02:12:52;6.45;;;5.20;;
32250;SDS011;41295;48.518;9.206;2022-09-30T02:15:00;10.77;;;4.82;;
32250;SDS011;41295;48.518;9.206;2022-09-30T02:17:06;7.32;;;5.45;;
32250;SDS011;41295;48.518;9.206;2022-09-30T02:19:16;8.85;;;5.40;;
32250;SDS011;41295;48.518;9.206;2022-09-30T02:21:25;8.27;;;4.97;;
32250;SDS011;41295;48.518;9.206;2022-09-30T02:23:32;7.65;;;5.43;;
32250;SDS011;41295;48.518;9.206;2022-09-30T02:25:38;8.68;;;5.18;;
32250;SDS011;41295;48.518;9.206;2022-09-30T02:27:46;9.90;;;5.32;;
32250;SDS011;41295;48.518;9.206;2022-09-30T02:29:54;11.82;;;5.40;;
32250;SDS011;41295;48.518;9.206;2022-09-30T02:32:01;8.00;;;5.35;;
32250;SDS011;41295;48.518;9.206;2022-09-30T02:34:10;9.50;;;4.82;;
32250;SDS011;41295;48.518;9.206;2022-09-30T02:36:17;9.25;;;5.57;;
32250;SDS011;41295;48.518;9.206;2022-09-30T02:38:25;7.80;;;5.07;;
32250;SDS011;41295;48.518;9.206;2022-09-30T02:40:32;8.40;;;5.65;;
32250;SDS011;41295;48.518;9.206;2022-09-30T02:42:40;5.75;;;4.53;;
32250;SDS011;41295;48.518;9.206;2022-09-30T02:44:46;10.52;;;5.30;;
32250;SDS011;41295;48.518;9.206;2022-09-30T02:46:52;9.80;;;5.00;;
32250;SDS011;41295;48.518;9.206;2022-09-30T02:48:58;8.70;;;5.18;;
32250;SDS011;41295;48.518;9.206;2022-09-30T02:51:09;7.20;;;5.53;;
32250;SDS011;41295;48.518;9.206;2022-09-30T02:53:17;8.25;;;5.13;;
32250;SDS011;41295;48.518;9.206;2022-09-30T02:55:27;10.55;;;6.18;;
32250;SDS011;41295;48.518;9.206;2022-09-30T02:57:36;8.00;;;4.95;;
32250;SDS011;41295;48.518;9.206;2022-09-30T02:59:44;7.88;;;4.90;;
32250;SDS011;41295;48.518;9.206;2022-09-30T03:01:48;7.95;;;5.25;;
32250;SDS011;41295;48.518;9.206;2022-09-30T03:03:51;9.90;;;5.47;;
32250;SDS011;41295;48.518;9.206;2022-09-30T03:05:56;13.13;;;6.13;;
32250;SDS011;41295;48.518;9.206;2022-09-30T03:08:01;7.13;;;5.35;;
32250;SDS011;41295;48.518;9.206;2022-09-30T03:10:10;9.10;;;5.53;;
32250;SDS011;41295;48.518;9.206;2022-09-30T03:12:16;8.73;;;5.32;;
32250;SDS011;41295;48.518;9.206;2022-09-30T03:14:33;9.35;;;5.47;;
32250;SDS011;41295;48.518;9.206;2022-09-30T03:16:54;7.20;;;5.00;;
32250;SDS011;41295;48.518;9.206;2022-09-30T03:19:13;6.07;;;4.68;;
32250;SDS011;41295;48.518;9.206;2022-09-30T03:21:30;6.97;;;4.95;;
32250;SDS011;41295;48.518;9.206;2022-09-30T03:26:27;8.80;;;5.10;;
32250;SDS011;41295;48.518;9.206;2022-09-30T03:28:40;7.13;;;4.95;;
32250;SDS011;41295;48.518;9.206;2022-09-30T03:30:54;7.25;;;5.22;;
32250;SDS011;41295;48.518;9.206;2022-09-30T03:33:05;7.90;;;5.13;;
32250;SDS011;41295;48.518;9.206;2022-09-30T03:35:15;7.85;;;5.13;;
32250;SDS011;41295;48.518;9.206;2022-09-30T03:37:24;9.63;;;5.95;;
32250;SDS011;41295;48.518;9.206;2022-09-30T03:39:35;12.38;;;5.32;;
32250;SDS011;41295;48.518;9.206;2022-09-30T03:41:50;9.13;;;5.22;;
32250;SDS011;41295;48.518;9.206;2022-09-30T03:44:00;7.93;;;4.90;;
32250;SDS011;41295;48.518;9.206;2022-09-30T03:46:07;9.20;;;4.82;;
32250;SDS011;41295;48.518;9.206;2022-09-30T03:48:17;7.78;;;5.68;;
32250;SDS011;41295;48.518;9.206;2022-09-30T03:50:23;8.15;;;5.60;;
32250;SDS011;41295;48.518;9.206;2022-09-30T03:52:29;7.40;;;5.35;;
32250;SDS011;41295;48.518;9.206;2022-09-30T03:54:33;7.25;;;5.57;;
32250;SDS011;41295;48.518;9.206;2022-09-30T03:56:45;7.88;;;5.05;;
32250;SDS011;41295;48.518;9.206;2022-09-30T03:58:49;9.57;;;4.80;;
32250;SDS011;41295;48.518;9.206;2022-09-30T04:00:52;8.55;;;4.90;;
32250;SDS011;41295;48.518;9.206;2022-09-30T04:02:57;8.98;;;4.80;;
32250;SDS011;41295;48.518;9.206;2022-09-30T04:04:59;9.10;;;5.18;;
32250;SDS011;41295;48.518;9.206;2022-09-30T04:07:02;9.70;;;4.78;;
32250;SDS011;41295;48.518;9.206;2022-09-30T04:09:05;8.98;;;5.05;;
32250;SDS011;41295;48.518;9.206;2022-09-30T04:11:08;9.50;;;5.20;;
32250;SDS011;41295;48.518;9.206;2022-09-30T04:13:11;8.25;;;4.82;;
32250;SDS011;41295;48.518;9.206;2022-09-30T04:15:15;10.35;;;5.13;;
32250;SDS011;41295;48.518;9.206;2022-09-30T04:17:18;8.00;;;5.72;;
32250;SDS011;41295;48.518;9.206;2022-09-30T04:19:20;9.32;;;5.28;;
32250;SDS011;41295;48.518;9.206;2022-09-30T04:21:23;7.40;;;5.10;;
32250;SDS011;41295;48.518;9.206;2022-09-30T04:23:28;10.43;;;5.57;;
32250;SDS011;41295;48.518;9.206;2022-09-30T04:25:31;8.07;;;5.70;;
32250;SDS011;41295;48.518;9.206;2022-09-30T04:27:33;9.50;;;5.30;;
32250;SDS011;41295;48.518;9.206;2022-09-30T04:29:36;9.80;;;5.10;;
32250;SDS011;41295;48.518;9.206;2022-09-30T04:31:40;8.30;;;5.20;;
32250;SDS011;41295;48.518;9.206;2022-09-30T04:33:43;8.30;;;5.75;;
32250;SDS011;41295;48.518;9.206;2022-09-30T04:35:46;10.93;;;5.57;;
32250;SDS011;41295;48.518;9.206;2022-09-30T04:37:48;10.15;;;5.88;;
32250;SDS011;41295;48.518;9.206;2022-09-30T04:39:51;7.00;;;5.30;;
32250;SDS011;41295;48.518;9.206;2022-09-30T04:41:54;6.68;;;4.93;;
32250;SDS011;41295;48.518;9.206;2022-09-30T04:44:00;7.15;;;4.93;;
32250;SDS011;41295;48.518;9.206;2022-09-30T04:46:06;11.38;;;5.60;;
32250;SDS011;41295;48.518;9.206;2022-09-30T04:48:10;10.48;;;5.63;;
32250;SDS011;41295;48.518;9.206;2022-09-30T04:50:13;9.57;;;5.45;;
32250;SDS011;41295;48.518;9.206;2022-09-30T04:52:16;9.02;;;6.22;;
32250;SDS011;41295;48.518;9.206;2022-09-30T04:54:18;9.55;;;6.32;;
32250;SDS011;41295;48.518;9.206;2022-09-30T04:56:21;10.25;;;4.78;;
32250;SDS011;41295;48.518;9.206;2022-09-30T04:58:24;15.38;;;5.35;;
32250;SDS011;41295;48.518;9.206;2022-09-30T05:00:27;8.90;;;5.28;;
32250;SDS011;41295;48.518;9.206;2022-09-30T05:02:30;7.40;;;5.05;;
32250;SDS011;41295;48.518;9.206;2022-09-30T05:04:34;11.73;;;6.05;;
32250;SDS011;41295;48.518;9.206;2022-09-30T05:06:36;9.18;;;4.85;;
32250;SDS011;41295;48.518;9.206;2022-09-30T05:08:41;12.02;;;6.55;;
32250;SDS011;41295;48.518;9.206;2022-09-30T05:10:51;8.38;;;5.55;;
32250;SDS011;41295;48.518;9.206;2022-09-30T05:12:55;13.02;;;6.05;;
32250;SDS011;41295;48.518;9.206;2022-09-30T05:14:58;12.43;;;6.25;;
32250;SDS011;41295;48.518;9.206;2022-09-30T05:17:01;16.55;;;6.20;;
32250;SDS011;41295;48.518;9.206;2022-09-30T05:19:04;14.60;;;6.00;;
32250;SDS011;41295;48.518;9.206;2022-09-30T05:21:08;11.88;;;6.78;;
32250;SDS011;41295;48.518;9.206;2022-09-30T05:23:11;8.00;;;6.18;;
32250;SDS011;41295;48.518;9.206;2022-09-30T05:25:14;12.38;;;6.00;;
32250;SDS011;41295;48.518;9.206;2022-09-30T05:27:16;9.85;;;6.68;;
32250;SDS011;41295;48.518;9.206;2022-09-30T05:29:19;13.90;;;6.68;;
32250;SDS011;41295;48.518;9.206;2022-09-30T05:31:25;11.45;;;6.70;;
32250;SDS011;41295;48.518;9.206;2022-09-30T05:33:28;11.45;;;5.93;;
32250;SDS011;41295;48.518;9.206;2022-09-30T05:35:31;20.83;;;7.68;;
32250;SDS011;41295;48.518;9.206;2022-09-30T05:37:35;11.10;;;5.80;;
32250;SDS011;41295;48.518;9.206;2022-09-30T05:39:38;11.63;;;6.45;;
32250;SDS011;41295;48.518;9.206;2022-09-30T05:41:41;9.57;;;6.35;;
32250;SDS011;41295;48.518;9.206;2022-09-30T05:43:43;10.35;;;6.93;;
32250;SDS011;41295;48.518;9.206;2022-09-30T05:45:51;9.30;;;5.63;;
32250;SDS011;41295;48.518;9.206;2022-09-30T05:47:54;16.13;;;5.80;;
32250;SDS011;41295;48.518;9.206;2022-09-30T05:49:57;9.55;;;6.00;;
32250;SDS011;41295;48.518;9.206;2022-09-30T05:52:00;11.07;;;6.05;;
32250;SDS011;41295;48.518;9.206;2022-09-30T05:54:04;11.43;;;5.70;;
32250;SDS011;41295;48.518;9.206;2022-09-30T05:56:08;11.98;;;6.30;;
32250;SDS011;41295;48.518;9.206;2022-09-30T05:58:11;10.70;;;5.65;;
32250;SDS011;41295;48.518;9.206;2022-09-30T06:00:14;11.32;;;5.80;;
32250;SDS011;41295;48.518;9.206;2022-09-30T06:02:17;10.10;;;5.68;;
32250;SDS011;41295;48.518;9.206;2022-09-30T06:04:20;10.77;;;6.45;;
32250;SDS011;41295;48.518;9.206;2022-09-30T06:06:23;12.80;;;5.50;;
32250;SDS011;41295;48.518;9.206;2022-09-30T06:08:26;8.13;;;5.18;;
32250;SDS011;41295;48.518;9.206;2022-09-30T06:10:30;9.57;;;4.65;;
32250;SDS011;41295;48.518;9.206;2022-09-30T06:12:33;12.25;;;5.13;;
32250;SDS011;41295;48.518;9.206;2022-09-30T06:14:37;12.45;;;5.35;;
32250;SDS011;41295;48.518;9.206;2022-09-30T06:16:39;9.93;;;5.35;;
32250;SDS011;41295;48.518;9.206;2022-09-30T06:18:42;8.65;;;5.18;;
32250;SDS011;41295;48.518;9.206;2022-09-30T06:20:46;12.02;;;5.75;;
32250;SDS011;41295;48.518;9.206;2022-09-30T06:22:49;13.55;;;5.70;;
32250;SDS011;41295;48.518;9.206;2022-09-30T06:24:51;8.25;;;5.50;;
32250;SDS011;41295;48.518;9.206;2022-09-30T06:26:57;8.73;;;4.93;;
32250;SDS011;41295;48.518;9.206;2022-09-30T06:28:59;6.15;;;4.75;;
32250;SDS011;41295;48.518;9.206;2022-09-30T06:31:02;8.00;;;5.20;;
32250;SDS011;41295;48.518;9.206;2022-09-30T06:33:05;16.30;;;6.20;;
32250;SDS011;41295;48.518;9.206;2022-09-30T06:35:07;9.00;;;5.93;;
32250;SDS011;41295;48.518;9.206;2022-09-30T06:37:11;8.95;;;5.85;;
32250;SDS011;41295;48.518;9.206;2022-09-30T06:39:13;10.65;;;6.65;;
32250;SDS011;41295;48.518;9.206;2022-09-30T06:41:16;9.15;;;6.15;;
32250;SDS011;41295;48.518;9.206;2022-09-30T06:43:20;9.32;;;6.32;;
32250;SDS011;41295;48.518;9.206;2022-09-30T06:45:23;16.23;;;6.43;;
32250;SDS011;41295;48.518;9.206;2022-09-30T06:47:32;11.27;;;7.15;;
32250;SDS011;41295;48.518;9.206;2022-09-30T06:49:35;10.90;;;5.93;;
32250;SDS011;41295;48.518;9.206;2022-09-30T06:51:49;7.47;;;5.60;;
32250;SDS011;41295;48.518;9.206;2022-09-30T06:53:52;11.40;;;5.05;;
32250;SDS011;41295;48.518;9.206;2022-09-30T06:55:56;10.68;;;6.07;;
32250;SDS011;41295;48.518;9.206;2022-09-30T06:57:59;9.52;;;5.13;;
32250;SDS011;41295;48.518;9.206;2022-09-30T07:00:03;10.80;;;4.97;;
32250;SDS011;41295;48.518;9.206;2022-09-30T07:02:07;9.43;;;5.05;;
32250;SDS011;41295;48.518;9.206;2022-09-30T07:04:11;10.93;;;4.85;;
32250;SDS011;41295;48.518;9.206;2022-09-30T07:06:13;6.00;;;4.65;;
32250;SDS011;41295;48.518;9.206;2022-09-30T07:08:16;9.15;;;4.93;;
32250;SDS011;41295;48.518;9.206;2022-09-30T07:10:19;11.13;;;5.20;;
32250;SDS011;41295;48.518;9.206;2022-09-30T07:12:22;15.85;;;4.88;;
32250;SDS011;41295;48.518;9.206;2022-09-30T07:14:25;11.85;;;4.80;;
32250;SDS011;41295;48.518;9.206;2022-09-30T07:16:29;6.95;;;5.10;;
32250;SDS011;41295;48.518;9.206;2022-09-30T07:18:34;7.00;;;4.90;;
32250;SDS011;41295;48.518;9.206;2022-09-30T07:20:37;6.63;;;5.05;;
32250;SDS011;41295;48.518;9.206;2022-09-30T07:22:40;8.73;;;5.25;;
32250;SDS011;41295;48.518;9.206;2022-09-30T07:24:43;7.45;;;5.20;;
32250;SDS011;41295;48.518;9.206;2022-09-30T07:26:45;11.05;;;5.70;;
32250;SDS011;41295;48.518;9.206;2022-09-30T07:28:48;11.00;;;5.00;;
32250;SDS011;41295;48.518;9.206;2022-09-30T07:30:52;7.80;;;5.07;;
32250;SDS011;41295;48.518;9.206;2022-09-30T07:33:17;8.80;;;4.82;;
32250;SDS011;41295;48.518;9.206;2022-09-30T07:35:20;7.95;;;4.25;;
32250;SDS011;41295;48.518;9.206;2022-09-30T07:37:23;5.95;;;4.45;;
32250;SDS011;41295;48.518;9.206;2022-09-30T07:39:26;7.47;;;4.80;;
32250;SDS011;41295;48.518;9.206;2022-09-30T07:41:29;7.93;;;4.95;;
32250;SDS011;41295;48.518;9.206;2022-09-30T07:43:32;9.38;;;4.88;;
32250;SDS011;41295;48.518;9.206;2022-09-30T07:45:39;6.75;;;5.20;;
32250;SDS011;41295;48.518;9.206;2022-09-30T07:47:41;7.30;;;5.25;;
32250;SDS011;41295;48.518;9.206;2022-09-30T07:49:45;5.93;;;4.68;;
32250;SDS011;41295;48.518;9.206;2022-09-30T07:51:48;9.98;;;5.55;;
32250;SDS011;41295;48.518;9.206;2022-09-30T07:53:53;10.05;;;5.90;;
32250;SDS011;41295;48.518;9.206;2022-09-30T07:56:00;8.20;;;5.95;;
32250;SDS011;41295;48.518;9.206;2022-09-30T07:58:04;10.25;;;5.75;;
32250;SDS011;41295;48.518;9.206;2022-09-30T08:00:08;9.80;;;6.25;;
32250;SDS011;41295;48.518;9.206;2022-09-30T08:02:31;9.77;;;6.47;;
32250;SDS011;41295;48.518;9.206;2022-09-30T08:04:34;8.85;;;6.00;;
32250;SDS011;41295;48.518;9.206;2022-09-30T08:06:46;10.80;;;7.57;;
32250;SDS011;41295;48.518;9.206;2022-09-30T08:08:50;10.35;;;7.13;;
32250;SDS011;41295;48.518;9.206;2022-09-30T08:10:57;12.73;;;6.82;;
32250;SDS011;41295;48.518;9.206;2022-09-30T08:13:00;9.80;;;7.15;;
32250;SDS011;41295;48.518;9.206;2022-09-30T08:15:06;8.80;;;6.70;;
32250;SDS011;41295;48.518;9.206;2022-09-30T08:17:10;10.02;;;7.30;;
32250;SDS011;41295;48.518;9.206;2022-09-30T08:19:14;12.20;;;7.28;;
32250;SDS011;41295;48.518;9.206;2022-09-30T08:21:18;11.93;;;7.93;;
32250;SDS011;41295;48.518;9.206;2022-09-30T08:23:22;10.77;;;8.05;;
32250;SDS011;41295;48.518;9.206;2022-09-30T08:25:25;10.95;;;8.32;;
32250;SDS011;41295;48.518;9.206;2022-09-30T08:27:27;11.48;;;7.20;;
32250;SDS011;41295;48.518;9.206;2022-09-30T08:29:30;14.80;;;9.02;;
32250;SDS011;41295;48.518;9.206;2022-09-30T08:31:52;10.15;;;7.63;;
32250;SDS011;41295;48.518;9.206;2022-09-30T08:33:55;13.80;;;7.78;;
32250;SDS011;41295;48.518;9.206;2022-09-30T08:36:00;12.75;;;7.30;;
32250;SDS011;41295;48.518;9.206;2022-09-30T08:38:04;11.75;;;7.22;;
32250;SDS011;41295;48.518;9.206;2022-09-30T08:40:09;11.70;;;7.90;;
32250;SDS011;41295;48.518;9.206;2022-09-30T08:42:27;10.48;;;8.13;;
32250;SDS011;41295;48.518;9.206;2022-09-30T08:44:45;19.10;;;8.05;;
32250;SDS011;41295;48.518;9.206;2022-09-30T08:46:51;14.20;;;7.70;;
32250;SDS011;41295;48.518;9.206;2022-09-30T08:48:59;10.13;;;7.47;;
32250;SDS011;41295;48.518;9.206;2022-09-30T08:51:17;11.60;;;7.32;;
32250;SDS011;41295;48.518;9.206;2022-09-30T08:53:31;12.35;;;8.10;;
32250;SDS011;41295;48.518;9.206;2022-09-30T08:55:39;13.52;;;8.07;;
32250;SDS011;41295;48.518;9.206;2022-09-30T08:57:44;12.95;;;7.90;;
32250;SDS011;41295;48.518;9.206;2022-09-30T08:59:48;13.13;;;8.15;;
32250;SDS011;41295;48.518;9.206;2022-09-30T09:01:57;16.58;;;10.73;;
32250;SDS011;41295;48.518;9.206;2022-09-30T09:04:04;15.13;;;9.38;;
32250;SDS011;41295;48.518;9.206;2022-09-30T09:06:12;12.85;;;8.80;;
32250;SDS011;41295;48.518;9.206;2022-09-30T09:08:22;12.38;;;9.25;;
32250;SDS011;41295;48.518;9.206;2022-09-30T09:10:36;12.00;;;9.07;;
32250;SDS011;41295;48.518;9.206;2022-09-30T09:12:46;18.33;;;9.35;;
32250;SDS011;41295;48.518;9.206;2022-09-30T09:15:00;17.33;;;9.13;;
32250;SDS011;41295;48.518;9.206;2022-09-30T09:17:19;16.70;;;8.50;;
32250;SDS011;41295;48.518;9.206;2022-09-30T09:19:33;15.80;;;8.65;;
32250;SDS011;41295;48.518;9.206;2022-09-30T09:21:41;11.35;;;7.75;;
32250;SDS011;41295;48.518;9.206;2022-09-30T09:23:52;18.38;;;8.57;;
32250;SDS011;41295;48.518;9.206;2022-09-30T09:26:00;12.45;;;8.82;;
32250;SDS011;41295;48.518;9.206;2022-09-30T09:28:04;16.05;;;9.98;;
32250;SDS011;41295;48.518;9.206;2022-09-30T09:30:18;18.45;;;9.65;;
32250;SDS011;41295;48.518;9.206;2022-09-30T09:32:23;13.45;;;9.40;;
32250;SDS011;41295;48.518;9.206;2022-09-30T09:34:28;13.50;;;9.75;;
32250;SDS011;41295;48.518;9.206;2022-09-30T09:36:34;13.32;;;9.63;;
32250;SDS011;41295;48.518;9.206;2022-09-30T09:38:56;16.27;;;10.30;;
32250;SDS011;41295;48.518;9.206;2022-09-30T09:41:13;13.45;;;9.55;;
32250;SDS011;41295;48.518;9.206;2022-09-30T09:43:27;15.75;;;9.85;;
32250;SDS011;41295;48.518;9.206;2022-09-30T09:45:41;14.27;;;9.63;;
32250;SDS011;41295;48.518;9.206;2022-09-30T09:47:51;14.50;;;9.50;;
32250;SDS011;41295;48.518;9.206;2022-09-30T09:49:54;12.82;;;8.63;;
32250;SDS011;41295;48.518;9.206;2022-09-30T09:52:13;15.90;;;8.95;;
32250;SDS011;41295;48.518;9.206;2022-09-30T09:54:28;19.88;;;9.35;;
32250;SDS011;41295;48.518;9.206;2022-09-30T09:56:35;14.88;;;9.07;;
32250;SDS011;41295;48.518;9.206;2022-09-30T09:58:38;15.32;;;8.63;;
32250;SDS011;41295;48.518;9.206;2022-09-30T10:01:10;11.68;;;8.18;;
32250;SDS011;41295;48.518;9.206;2022-09-30T10:03:32;14.57;;;8.38;;
32250;SDS011;41295;48.518;9.206;2022-09-30T10:05:35;12.63;;;7.90;;
32250;SDS011;41295;48.518;9.206;2022-09-30T10:07:40;13.55;;;8.15;;
32250;SDS011;41295;48.518;9.206;2022-09-30T10:09:43;14.98;;;7.88;;
32250;SDS011;41295;48.518;9.206;2022-09-30T10:11:47;13.27;;;7.90;;
32250;SDS011;41295;48.518;9.206;2022-09-30T10:13:49;12.80;;;8.02;;
32250;SDS011;41295;48.518;9.206;2022-09-30T10:15:57;18.38;;;8.68;;
32250;SDS011;41295;48.518;9.206;2022-09-30T10:18:01;12.73;;;7.88;;
32250;SDS011;41295;48.518;9.206;2022-09-30T10:20:05;10.48;;;6.60;;
32250;SDS011;41295;48.518;9.206;2022-09-30T10:22:18;12.88;;;7.10;;
32250;SDS011;41295;48.518;9.206;2022-09-30T10:24:26;12.43;;;6.40;;
32250;SDS011;41295;48.518;9.206;2022-09-30T10:26:32;10.05;;;5.78;;
32250;SDS011;41295;48.518;9.206;2022-09-30T10:28:51;12.77;;;6.93;;
32250;SDS011;41295;48.518;9.206;2022-09-30T10:30:56;10.27;;;6.32;;
32250;SDS011;41295;48.518;9.206;2022-09-30T10:33:01;10.10;;;5.88;;
32250;SDS011;41295;48.518;9.206;2022-09-30T10:35:06;10.25;;;5.88;;
32250;SDS011;41295;48.518;9.206;2022-09-30T10:37:20;10.52;;;6.53;;
32250;SDS011;41295;48.518;9.206;2022-09-30T10:39:24;10.35;;;5.80;;
32250;SDS011;41295;48.518;9.206;2022-09-30T10:41:30;11.52;;;6.35;;
32250;SDS011;41295;48.518;9.206;2022-09-30T10:43:36;10.20;;;5.80;;
32250;SDS011;41295;48.518;9.206;2022-09-30T10:45:46;10.70;;;6.10;;
32250;SDS011;41295;48.518;9.206;2022-09-30T10:48:13;7.47;;;5.05;;
32250;SDS011;41295;48.518;9.206;2022-09-30T10:50:20;10.37;;;6.17;;
32250;SDS011;41295;48.518;9.206;2022-09-30T10:52:25;11.23;;;6.60;;
32250;SDS011;41295;48.518;9.206;2022-09-30T10:54:33;9.25;;;5.95;;
32250;SDS011;41295;48.518;9.206;2022-09-30T10:56:39;14.13;;;6.80;;
32250;SDS011;41295;48.518;9.206;2022-09-30T10:58:44;14.25;;;6.50;;
32250;SDS011;41295;48.518;9.206;2022-09-30T11:00:55;15.68;;;7.03;;
32250;SDS011;41295;48.518;9.206;2022-09-30T11:03:04;14.13;;;6.97;;
32250;SDS011;41295;48.518;9.206;2022-09-30T11:05:14;9.65;;;6.03;;
32250;SDS011;41295;48.518;9.206;2022-09-30T11:07:21;10.80;;;6.20;;
32250;SDS011;41295;48.518;9.206;2022-09-30T11:09:32;11.40;;;6.18;;
32250;SDS011;41295;48.518;9.206;2022-09-30T11:11:40;11.43;;;6.20;;
32250;SDS011;41295;48.518;9.206;2022-09-30T11:13:47;8.60;;;6.20;;
32250;SDS011;41295;48.518;9.206;2022-09-30T11:16:02;7.43;;;5.40;;
32250;SDS011;41295;48.518;9.206;2022-09-30T11:18:12;11.02;;;5.32;;
32250;SDS011;41295;48.518;9.206;2022-09-30T11:20:21;9.57;;;5.07;;
32250;SDS011;41295;48.518;9.206;2022-09-30T11:22:32;9.32;;;5.10;;
32250;SDS011;41295;48.518;9.206;2022-09-30T11:24:45;7.90;;;4.65;;
32250;SDS011;41295;48.518;9.206;2022-09-30T11:26:51;8.50;;;4.75;;
32250;SDS011;41295;48.518;9.206;2022-09-30T11:29:10;9.25;;;5.10;;
32250;SDS011;41295;48.518;9.206;2022-09-30T11:31:30;8.55;;;4.40;;
32250;SDS011;41295;48.518;9.206;2022-09-30T11:33:49;8.57;;;4.00;;
32250;SDS011;41295;48.518;9.206;2022-09-30T11:36:07;7.60;;;3.60;;
32250;SDS011;41295;48.518;9.206;2022-09-30T11:38:23;5.82;;;3.63;;
32250;SDS011;41295;48.518;9.206;2022-09-30T11:40:41;12.13;;;3.97;;
32250;SDS011;41295;48.518;9.206;2022-09-30T11:42:54;7.63;;;3.75;;
32250;SDS011;41295;48.518;9.206;2022-09-30T11:45:13;5.65;;;3.50;;
32250;SDS011;41295;48.518;9.206;2022-09-30T11:47:31;8.20;;;3.72;;
32250;SDS011;41295;48.518;9.206;2022-09-30T11:49:44;10.50;;;3.90;;
32250;SDS011;41295;48.518;9.206;2022-09-30T11:52:07;7.50;;;3.95;;
32250;SDS011;41295;48.518;9.206;2022-09-30T11:54:22;7.97;;;4.15;;
32250;SDS011;41295;48.518;9.206;2022-09-30T11:56:41;7.18;;;3.88;;
32250;SDS011;41295;48.518;9.206;2022-09-30T11:58:52;7.85;;;3.80;;
32250;SDS011;41295;48.518;9.206;2022-09-30T12:01:04;5.95;;;3.17;;
32250;SDS011;41295;48.518;9.206;2022-09-30T12:03:18;7.55;;;3.38;;
32250;SDS011;41295;48.518;9.206;2022-09-30T12:05:27;5.97;;;3.67;;
32250;SDS011;41295;48.518;9.206;2022-09-30T12:07:38;7.22;;;3.33;;
32250;SDS011;41295;48.518;9.206;2022-09-30T12:09:45;4.47;;;2.85;;
32250;SDS011;41295;48.518;9.206;2022-09-30T12:11:53;7.38;;;3.42;;
32250;SDS011;41295;48.518;9.206;2022-09-30T12:14:02;7.85;;;3.85;;
32250;SDS011;41295;48.518;9.206;2022-09-30T12:16:14;6.38;;;3.83;;
32250;SDS011;41295;48.518;9.206;2022-09-30T12:18:21;9.98;;;3.60;;
32250;SDS011;41295;48.518;9.206;2022-09-30T12:20:29;5.35;;;3.10;;
32250;SDS011;41295;48.518;9.206;2022-09-30T12:22:36;4.05;;;2.65;;
32250;SDS011;41295;48.518;9.206;2022-09-30T12:24:42;7.57;;;3.40;;
32250;SDS011;41295;48.518;9.206;2022-09-30T12:26:45;5.68;;;3.00;;
32250;SDS011;41295;48.518;9.206;2022-09-30T12:28:50;5.82;;;3.03;;
32250;SDS011;41295;48.518;9.206;2022-09-30T12:34:06;4.55;;;2.97;;
32250;SDS011;41295;48.518;9.206;2022-09-30T12:36:25;4.88;;;3.28;;
32250;SDS011;41295;48.518;9.206;2022-09-30T12:38:52;4.05;;;2.58;;
32250;SDS011;41295;48.518;9.206;2022-09-30T12:41:22;4.95;;;2.80;;
32250;SDS011;41295;48.518;9.206;2022-09-30T12:43:42;4.70;;;2.72;;
32250;SDS011;41295;48.518;9.206;2022-09-30T12:46:16;5.28;;;3.15;;
32250;SDS011;41295;48.518;9.206;2022-09-30T12:48:25;4.15;;;2.70;;
32250;SDS011;41295;48.518;9.206;2022-09-30T12:50:44;4.57;;;2.47;;